Dickinson, New York
Current Conditions -  °F | °C
As of 5:53 AM on Monday 22 Dec 2014 (Local Time) from KBGM Reporting Station
Overcast Overcast  
Wind Chill: 18°   Ceiling: 1400
Heat Index: 26°   Visibility: 10mi
Dew Point: 23°   Wind: 7mph
Humidity: 88%   Direction: 130°SE
Pressure: 30.21"   Gusts: NA
Location:  42.1759°N, 75.9402°W
Report Text: KBGM 221053Z 13006KT 10SM OVC014 M03/M05 A3021 RMK AO2 SLP252 T10331050
Loading
Personal Weather Stations






























Interactive Weather Map New forecast layout! Learn more

10-Day Weather Forecast

Advertisements
Track Severe Weather on mobile